Milborne Port, United Kingdom
Current Conditions -  °F | °C
As of 1:50 PM on Friday 24 Oct 2014 (Local Time) from EGDY Reporting Station
Broken Clouds Broken Clouds  
Wind Chill: 63°   Ceiling: 8000
Heat Index: 63°   Visibility: 6mi
Dew Point: 57°   Wind: 12mph
Humidity: 82%   Direction: 210°SSW
Pressure: 29.91"   Gusts: NA
Location:  50.97°N, 2.46°W
Report Text: EGDY 241250Z 21010KT 9999 FEW012 SCT020 BKN080 17/14 Q1013 WHT NOSIG
Loading
Personal Weather Stations






























Interactive Weather Map
Tropical Storm Tracking
New forecast layout! Learn more

10-Day Weather Forecast

Advertisements
Track Severe Weather on mobile